createdAt,value
2024-04-05T00:02:59.622Z,17.8
2024-04-05T00:08:35.377Z,17.8
2024-04-05T00:14:10.358Z,17.8
2024-04-05T00:19:45.339Z,17.8
2024-04-05T00:25:20.400Z,17.8
2024-04-05T00:30:55.529Z,17.8
2024-04-05T00:36:30.682Z,17.9
2024-04-05T00:42:05.882Z,17.9
2024-04-05T00:47:41.087Z,17.9
2024-04-05T00:53:16.569Z,17.9
2024-04-05T00:58:51.506Z,17.9
2024-04-05T01:04:26.772Z,17.9
2024-04-05T01:10:02.096Z,18
2024-04-05T01:15:37.005Z,18
2024-04-05T01:21:12.100Z,18.1
2024-04-05T01:26:47.319Z,18.1
2024-04-05T01:32:22.542Z,18
2024-04-05T01:37:57.851Z,17.7
2024-04-05T01:43:33.154Z,17.6
2024-04-05T01:49:08.950Z,17.7
2024-04-05T01:54:44.160Z,17.7
2024-04-05T02:00:19.513Z,17.7
2024-04-05T02:05:54.372Z,17.7
2024-04-05T02:11:29.717Z,17.6
2024-04-05T02:17:04.837Z,17.5
2024-04-05T02:22:39.823Z,17.5
2024-04-05T02:28:15.950Z,17.5
2024-04-05T02:33:51.266Z,17.6
2024-04-05T02:39:26.519Z,17.5
2024-04-05T02:45:01.517Z,17.4
2024-04-05T02:50:37.029Z,17.3
2024-04-05T02:56:12.202Z,17.3
2024-04-05T03:01:47.367Z,17.1
2024-04-05T03:07:23.019Z,17.2
2024-04-05T03:12:58.087Z,17.3
2024-04-05T03:18:32.979Z,17.4
2024-04-05T03:24:08.534Z,17.3
2024-04-05T03:29:43.396Z,17.4
2024-04-05T03:35:18.559Z,17.3
2024-04-05T03:40:53.902Z,17.3
2024-04-05T03:46:29.192Z,17.1
2024-04-05T03:52:03.995Z,17
2024-04-05T03:57:38.986Z,17
2024-04-05T04:03:13.943Z,17
2024-04-05T04:08:48.972Z,17.1
2024-04-05T04:14:24.238Z,17.1
2024-04-05T04:19:59.411Z,17.2
2024-04-05T04:25:34.598Z,17.2
2024-04-05T04:31:09.896Z,17.1
2024-04-05T04:36:45.207Z,17
2024-04-05T04:42:20.171Z,17
2024-04-05T04:47:56.044Z,17
2024-04-05T04:53:31.096Z,16.9
2024-04-05T04:59:06.169Z,16.9
2024-04-05T05:04:41.410Z,16.9
2024-04-05T05:10:17.213Z,16.9
2024-04-05T05:15:52.003Z,16.8
2024-04-05T05:21:28.095Z,16.7
2024-04-05T05:27:03.119Z,16.8
2024-04-05T05:32:38.478Z,16.8
2024-04-05T05:38:14.530Z,16.8
2024-04-05T05:43:49.827Z,16.8
2024-04-05T05:49:26.051Z,16.8
2024-04-05T05:55:01.514Z,16.9
2024-04-05T06:00:36.913Z,17.1
2024-04-05T06:06:12.158Z,17.1
2024-04-05T06:11:47.288Z,17
2024-04-05T06:17:22.464Z,17.1
2024-04-05T06:22:57.793Z,17.2
2024-04-05T06:28:37.064Z,17.3
2024-04-05T06:34:16.491Z,16.7
2024-04-05T06:39:51.556Z,17.2
2024-04-05T06:45:26.882Z,17.4
2024-04-05T06:51:02.893Z,17.8
2024-04-05T06:56:38.473Z,18.2
2024-04-05T07:02:14.056Z,18.4
2024-04-05T07:07:49.012Z,17.5
2024-04-05T07:13:24.338Z,17.5
2024-04-05T07:19:01.030Z,17.6
2024-04-05T07:24:38.493Z,18
2024-04-05T07:30:13.956Z,17.9
2024-04-05T07:35:49.425Z,18
2024-04-05T07:41:25.499Z,18.1
2024-04-05T07:47:00.762Z,18.4
2024-04-05T07:52:36.010Z,18.6
2024-04-05T07:58:11.096Z,19.4
2024-04-05T08:03:46.258Z,19.9
2024-04-05T08:09:22.014Z,20
2024-04-05T08:14:56.910Z,20
2024-04-05T08:20:32.060Z,20.2
2024-04-05T08:26:07.649Z,20.9
2024-04-05T08:31:42.653Z,21.2
2024-04-05T08:37:17.900Z,21.5
2024-04-05T08:42:53.599Z,22
2024-04-05T08:48:29.160Z,22.2
2024-04-05T08:54:04.535Z,22.4
2024-04-05T08:59:39.890Z,22.4
2024-04-05T09:05:14.885Z,22.5
2024-04-05T09:10:49.827Z,22.7
2024-04-05T09:16:25.605Z,22.7
2024-04-05T09:22:01.007Z,22.9
2024-04-05T09:27:36.190Z,22.8
2024-04-05T09:33:11.626Z,23.5
2024-04-05T09:38:46.601Z,23.7
2024-04-05T09:44:25.822Z,24
2024-04-05T09:50:02.558Z,24.2
2024-04-05T09:55:37.763Z,24.7
2024-04-05T10:01:12.776Z,25.1
2024-04-05T10:06:48.403Z,25
2024-04-05T10:12:23.811Z,24.8
2024-04-05T10:18:01.394Z,25
2024-04-05T10:23:37.040Z,25
2024-04-05T10:29:12.415Z,24.9
2024-04-05T10:34:47.741Z,25
2024-04-05T10:40:24.085Z,25.1
2024-04-05T10:45:59.342Z,25.3
2024-04-05T10:51:34.617Z,25.5
2024-04-05T10:57:10.579Z,25.8
2024-04-05T11:02:46.697Z,26
2024-04-05T11:08:21.743Z,26.1
2024-04-05T11:13:57.283Z,26.2
2024-04-05T11:19:32.659Z,26.4
2024-04-05T11:25:07.663Z,26.5
2024-04-05T11:30:43.342Z,26.8
2024-04-05T11:36:18.530Z,26.8
2024-04-05T11:41:53.853Z,27.4
2024-04-05T11:47:29.811Z,27
2024-04-05T11:53:05.562Z,27.2
2024-04-05T11:58:41.051Z,27.4
2024-04-05T12:04:16.641Z,27.7
2024-04-05T12:09:52.040Z,27.8
2024-04-05T12:15:27.456Z,28
2024-04-05T12:21:03.101Z,28
2024-04-05T12:26:38.492Z,28.2
2024-04-05T12:32:14.418Z,28.5
2024-04-05T12:37:50.200Z,28.8
2024-04-05T12:43:25.529Z,29
2024-04-05T12:49:00.769Z,29.5
2024-04-05T12:54:36.122Z,29.7
2024-04-05T13:00:11.375Z,30
2024-04-05T13:05:46.778Z,30.2
2024-04-05T13:11:22.316Z,30.6
2024-04-05T13:16:57.511Z,30.4
2024-04-05T13:22:33.111Z,30.5
2024-04-05T13:28:08.804Z,30.6
2024-04-05T13:33:43.864Z,30.8
2024-04-05T13:39:19.081Z,31.1
2024-04-05T13:44:54.526Z,31.2
2024-04-05T13:50:29.778Z,31.4
2024-04-05T13:56:04.945Z,31.5
2024-04-05T14:01:40.924Z,31.4
2024-04-05T14:07:16.024Z,31
2024-04-05T14:12:51.522Z,31
2024-04-05T14:18:27.344Z,30.6
2024-04-05T14:24:02.434Z,30.7
2024-04-05T14:29:37.340Z,30.9
2024-04-05T14:35:12.426Z,30.9
2024-04-05T14:40:47.926Z,31.1
2024-04-05T14:46:23.856Z,30.7
2024-04-05T14:51:59.146Z,30.1
2024-04-05T14:57:33.934Z,29.5
2024-04-05T15:03:08.933Z,29.5
2024-04-05T15:08:46.014Z,30.1
2024-04-05T15:14:23.239Z,30.2
2024-04-05T15:19:58.159Z,30
2024-04-05T15:25:33.183Z,30.3
2024-04-05T15:31:08.418Z,30.2
2024-04-05T15:36:43.368Z,29.8
2024-04-05T15:42:19.046Z,29.6
2024-04-05T15:47:54.015Z,29.4
2024-04-05T15:53:28.995Z,29.5
2024-04-05T15:59:04.586Z,29.2
2024-04-05T16:04:40.502Z,29
2024-04-05T16:10:15.638Z,28.9
2024-04-05T16:15:51.224Z,28.7
2024-04-05T16:21:26.499Z,28.5
2024-04-05T16:27:01.522Z,28.4
2024-04-05T16:32:36.744Z,28.2
2024-04-05T16:38:12.005Z,28.4
2024-04-05T16:43:51.004Z,28.5
2024-04-05T16:49:26.504Z,28.1
2024-04-05T16:55:02.035Z,27.8
2024-04-05T17:00:37.453Z,27.5
2024-04-05T17:06:13.989Z,27.3
2024-04-05T17:11:50.070Z,27.1
2024-04-05T17:17:25.116Z,26.9
2024-04-05T17:23:00.862Z,26.7
2024-04-05T17:28:36.258Z,26.5
2024-04-05T17:34:11.229Z,26.3
2024-04-05T17:39:46.435Z,26.1
2024-04-05T17:45:21.502Z,26
2024-04-05T17:50:56.474Z,25.7
2024-04-05T17:56:31.518Z,25.5
2024-04-05T18:02:06.860Z,25.3
2024-04-05T18:07:42.158Z,25.2
2024-04-05T18:13:17.627Z,25.2
2024-04-05T18:18:52.346Z,25
2024-04-05T18:24:27.552Z,24.7
2024-04-05T18:30:03.704Z,24.6
2024-04-05T18:35:38.548Z,24.4
2024-04-05T18:41:14.963Z,24.2
2024-04-05T18:46:51.679Z,24
2024-04-05T18:52:26.886Z,23.9
2024-04-05T18:58:01.993Z,23.8
2024-04-05T19:03:37.050Z,23.6
2024-04-05T19:09:12.112Z,23.5
2024-04-05T19:14:47.105Z,23.3
2024-04-05T19:20:22.308Z,22.9
2024-04-05T19:25:57.216Z,22.6
2024-04-05T19:31:32.239Z,22.5
2024-04-05T19:37:08.766Z,22.4
2024-04-05T19:42:44.028Z,22.4
2024-04-05T19:48:18.765Z,22.3
2024-04-05T19:53:54.059Z,22.1
2024-04-05T19:59:28.803Z,21.9
2024-04-05T20:05:03.929Z,21.9
2024-04-05T20:10:39.300Z,21.8
2024-04-05T20:16:14.602Z,21.8
2024-04-05T20:21:50.035Z,21.8
2024-04-05T20:27:26.118Z,21.7
2024-04-05T20:33:00.807Z,21.7
2024-04-05T20:38:36.080Z,21.6
2024-04-05T20:44:11.057Z,21.6
2024-04-05T20:49:47.341Z,21.6
2024-04-05T20:55:22.625Z,21.6
2024-04-05T21:00:57.896Z,21.6
2024-04-05T21:06:32.917Z,21.6
2024-04-05T21:12:08.023Z,21.5
2024-04-05T21:17:43.032Z,21.6
2024-04-05T21:23:18.319Z,21.6
2024-04-05T21:28:54.275Z,21.6
2024-04-05T21:34:29.554Z,21.6
2024-04-05T21:40:04.791Z,21.6
2024-04-05T21:45:39.852Z,21.6
2024-04-05T21:51:18.181Z,21.6
2024-04-05T21:56:54.366Z,21.6
2024-04-05T22:02:29.735Z,21.5
2024-04-05T22:08:05.430Z,21.5
2024-04-05T22:13:40.562Z,21.5
2024-04-05T22:19:15.707Z,21.5
2024-04-05T22:24:51.378Z,21.5
2024-04-05T22:30:26.314Z,21.5
2024-04-05T22:36:01.611Z,21.4
2024-04-05T22:41:36.988Z,21.4
2024-04-05T22:47:12.171Z,21.4
2024-04-05T22:52:47.674Z,21.3
2024-04-05T22:58:22.768Z,21.3
2024-04-05T23:03:57.685Z,21.3
2024-04-05T23:09:32.769Z,21.3
2024-04-05T23:15:08.290Z,21.3
2024-04-05T23:20:43.267Z,21.3
2024-04-05T23:26:18.673Z,21.3
2024-04-05T23:31:54.346Z,21.3
2024-04-05T23:37:29.685Z,21.3
2024-04-05T23:43:04.571Z,21.3
2024-04-05T23:48:39.657Z,21.2
2024-04-05T23:54:14.572Z,21.2
2024-04-05T23:59:49.899Z,21.2
